SBPK/PET METAR and TAF weather

Enter ICAO airport designator
Station Type Date Time Source
SBPK METAR 2022/12/04 00:00 UTC NOAA

SBPK 040000Z 18005KT CAVOK 23/22 Q1010


Station Type Date Time Source
SBPK Decoded METAR 2022/12/04 00:00 UTC NOAA

Pelotas, Brazil (SBPK) 31-52S 052-21W 13M
Dec 03, 2022 - 07:00 PM EST / 2022.12.04 0000 UTC
Wind: from the S (180 degrees) at 6 MPH (5 KT):0
Visibility: greater than 7 mile(s):0
Temperature: 73 F (23 C)
Dew Point: 71 F (22 C)
Relative Humidity: 94%
Pressure (altimeter): 29.83 in. Hg (1010 hPa)
ob: SBPK 040000Z 18005KT CAVOK 23/22 Q1010
cycle: 0

Station Type Date Time Source
SBPK TAF 2022/12/04 06:45 UTC NOAA

TAF SBPK 040300Z 0406/0506 07010KT 9999 SCT015 TN21/0409Z TX27/0418Z
BECMG 0412/0414 SCT020 FEW025TCU
TEMPO 0415/0421 8000 TS SCT020 FEW030CB
RMK PDZ

Example: see airport list